sensor_id;sensor_type;location;lat;lon;timestamp;temperature;humidity
26621;DHT22;14253;44.840;10.444;2024-03-08T00:00:57;6.70;99.90
26621;DHT22;14253;44.840;10.444;2024-03-08T00:03:23;6.70;99.90
26621;DHT22;14253;44.840;10.444;2024-03-08T00:05:49;6.70;99.90
26621;DHT22;14253;44.840;10.444;2024-03-08T00:08:14;6.70;99.90
26621;DHT22;14253;44.840;10.444;2024-03-08T00:10:41;6.60;99.90
26621;DHT22;14253;44.840;10.444;2024-03-08T00:13:06;6.60;99.90
26621;DHT22;14253;44.840;10.444;2024-03-08T00:15:32;6.60;99.90
26621;DHT22;14253;44.840;10.444;2024-03-08T00:17:58;6.70;99.90
26621;DHT22;14253;44.840;10.444;2024-03-08T00:20:24;6.70;99.90
26621;DHT22;14253;44.840;10.444;2024-03-08T00:22:50;6.70;99.90
26621;DHT22;14253;44.840;10.444;2024-03-08T00:25:16;6.70;99.90
26621;DHT22;14253;44.840;10.444;2024-03-08T00:27:43;6.80;99.90
26621;DHT22;14253;44.840;10.444;2024-03-08T00:30:10;6.80;99.90
26621;DHT22;14253;44.840;10.444;2024-03-08T00:32:39;6.80;99.90
26621;DHT22;14253;44.840;10.444;2024-03-08T00:35:05;6.90;99.90
26621;DHT22;14253;44.840;10.444;2024-03-08T00:37:34;6.90;99.90
26621;DHT22;14253;44.840;10.444;2024-03-08T00:40:02;7.00;99.90
26621;DHT22;14253;44.840;10.444;2024-03-08T00:42:28;7.00;99.90
26621;DHT22;14253;44.840;10.444;2024-03-08T00:44:54;7.00;99.90
26621;DHT22;14253;44.840;10.444;2024-03-08T00:47:20;7.00;99.90
26621;DHT22;14253;44.840;10.444;2024-03-08T00:49:46;7.00;99.90
26621;DHT22;14253;44.840;10.444;2024-03-08T00:52:12;7.00;99.90
26621;DHT22;14253;44.840;10.444;2024-03-08T00:54:38;7.10;99.90
26621;DHT22;14253;44.840;10.444;2024-03-08T00:57:04;7.10;99.90
26621;DHT22;14253;44.840;10.444;2024-03-08T00:59:30;7.20;99.90
26621;DHT22;14253;44.840;10.444;2024-03-08T01:01:59;7.20;99.90
26621;DHT22;14253;44.840;10.444;2024-03-08T01:04:26;7.30;99.90
26621;DHT22;14253;44.840;10.444;2024-03-08T01:06:55;7.30;99.90
26621;DHT22;14253;44.840;10.444;2024-03-08T01:09:25;7.30;99.90
26621;DHT22;14253;44.840;10.444;2024-03-08T01:11:53;7.40;99.90
26621;DHT22;14253;44.840;10.444;2024-03-08T01:14:23;7.40;99.90
26621;DHT22;14253;44.840;10.444;2024-03-08T01:16:49;7.50;99.90
26621;DHT22;14253;44.840;10.444;2024-03-08T01:19:16;7.40;99.90
26621;DHT22;14253;44.840;10.444;2024-03-08T01:21:42;7.50;99.90
26621;DHT22;14253;44.840;10.444;2024-03-08T01:24:08;7.50;99.90
26621;DHT22;14253;44.840;10.444;2024-03-08T01:26:34;7.50;99.90
26621;DHT22;14253;44.840;10.444;2024-03-08T01:29:00;7.50;99.90
26621;DHT22;14253;44.840;10.444;2024-03-08T01:31:31;7.50;99.90
26621;DHT22;14253;44.840;10.444;2024-03-08T01:34:00;7.50;99.90
26621;DHT22;14253;44.840;10.444;2024-03-08T01:36:26;7.50;99.90
26621;DHT22;14253;44.840;10.444;2024-03-08T01:38:52;7.50;99.90
26621;DHT22;14253;44.840;10.444;2024-03-08T01:41:19;7.50;99.90
26621;DHT22;14253;44.840;10.444;2024-03-08T01:43:45;7.50;99.90
26621;DHT22;14253;44.840;10.444;2024-03-08T01:46:14;7.50;99.90
26621;DHT22;14253;44.840;10.444;2024-03-08T01:48:42;7.50;99.90
26621;DHT22;14253;44.840;10.444;2024-03-08T01:51:08;7.50;99.90
26621;DHT22;14253;44.840;10.444;2024-03-08T01:53:35;7.50;99.90
26621;DHT22;14253;44.840;10.444;2024-03-08T01:56:02;7.60;99.90
26621;DHT22;14253;44.840;10.444;2024-03-08T01:58:29;7.60;99.90
26621;DHT22;14253;44.840;10.444;2024-03-08T02:00:57;7.60;99.90
26621;DHT22;14253;44.840;10.444;2024-03-08T02:03:25;7.60;99.90
26621;DHT22;14253;44.840;10.444;2024-03-08T02:05:51;7.70;99.90
26621;DHT22;14253;44.840;10.444;2024-03-08T02:08:18;7.80;99.90
26621;DHT22;14253;44.840;10.444;2024-03-08T02:10:45;7.70;99.90
26621;DHT22;14253;44.840;10.444;2024-03-08T02:13:11;7.70;99.90
26621;DHT22;14253;44.840;10.444;2024-03-08T02:16:03;7.70;99.90
26621;DHT22;14253;44.840;10.444;2024-03-08T02:18:30;7.60;99.90
26621;DHT22;14253;44.840;10.444;2024-03-08T02:20:59;7.60;99.90
26621;DHT22;14253;44.840;10.444;2024-03-08T02:23:26;7.60;99.90
26621;DHT22;14253;44.840;10.444;2024-03-08T02:25:52;7.70;99.90
26621;DHT22;14253;44.840;10.444;2024-03-08T02:28:19;7.70;99.90
26621;DHT22;14253;44.840;10.444;2024-03-08T02:30:46;7.60;99.90
26621;DHT22;14253;44.840;10.444;2024-03-08T02:33:16;7.50;99.90
26621;DHT22;14253;44.840;10.444;2024-03-08T02:35:45;7.40;99.90
26621;DHT22;14253;44.840;10.444;2024-03-08T02:38:14;7.40;99.90
26621;DHT22;14253;44.840;10.444;2024-03-08T02:40:45;7.30;99.90
26621;DHT22;14253;44.840;10.444;2024-03-08T02:43:12;7.20;99.90
26621;DHT22;14253;44.840;10.444;2024-03-08T02:45:38;7.20;99.90
26621;DHT22;14253;44.840;10.444;2024-03-08T02:48:05;7.20;99.90
26621;DHT22;14253;44.840;10.444;2024-03-08T02:50:34;7.10;99.90
26621;DHT22;14253;44.840;10.444;2024-03-08T02:53:01;7.10;99.90
26621;DHT22;14253;44.840;10.444;2024-03-08T02:55:27;7.00;99.90
26621;DHT22;14253;44.840;10.444;2024-03-08T02:57:53;7.00;99.90
26621;DHT22;14253;44.840;10.444;2024-03-08T03:00:22;7.00;99.90
26621;DHT22;14253;44.840;10.444;2024-03-08T03:02:52;7.00;99.90
26621;DHT22;14253;44.840;10.444;2024-03-08T03:05:21;6.90;99.90
26621;DHT22;14253;44.840;10.444;2024-03-08T03:07:47;6.90;99.90
26621;DHT22;14253;44.840;10.444;2024-03-08T03:10:14;6.90;99.90
26621;DHT22;14253;44.840;10.444;2024-03-08T03:12:45;6.90;99.90
26621;DHT22;14253;44.840;10.444;2024-03-08T03:15:14;6.70;99.90
26621;DHT22;14253;44.840;10.444;2024-03-08T03:17:46;6.70;99.90
26621;DHT22;14253;44.840;10.444;2024-03-08T03:20:14;6.70;99.90
26621;DHT22;14253;44.840;10.444;2024-03-08T03:22:40;6.60;99.90
26621;DHT22;14253;44.840;10.444;2024-03-08T03:25:09;6.60;99.90
26621;DHT22;14253;44.840;10.444;2024-03-08T03:27:35;6.60;99.90
26621;DHT22;14253;44.840;10.444;2024-03-08T03:30:03;6.50;99.90
26621;DHT22;14253;44.840;10.444;2024-03-08T03:32:50;6.50;99.90
26621;DHT22;14253;44.840;10.444;2024-03-08T03:35:19;6.50;99.90
26621;DHT22;14253;44.840;10.444;2024-03-08T03:37:47;6.50;99.90
26621;DHT22;14253;44.840;10.444;2024-03-08T03:40:35;6.50;99.90
26621;DHT22;14253;44.840;10.444;2024-03-08T03:43:01;6.50;99.90
26621;DHT22;14253;44.840;10.444;2024-03-08T03:45:28;6.50;99.90
26621;DHT22;14253;44.840;10.444;2024-03-08T03:47:54;6.60;99.90
26621;DHT22;14253;44.840;10.444;2024-03-08T03:50:21;6.60;99.90
26621;DHT22;14253;44.840;10.444;2024-03-08T03:52:48;6.60;99.90
26621;DHT22;14253;44.840;10.444;2024-03-08T03:55:14;6.50;99.90
26621;DHT22;14253;44.840;10.444;2024-03-08T03:57:41;6.40;99.90
26621;DHT22;14253;44.840;10.444;2024-03-08T04:00:07;6.40;99.90
26621;DHT22;14253;44.840;10.444;2024-03-08T04:02:40;6.30;99.90
26621;DHT22;14253;44.840;10.444;2024-03-08T04:05:08;6.30;99.90
26621;DHT22;14253;44.840;10.444;2024-03-08T04:07:34;6.40;99.90
26621;DHT22;14253;44.840;10.444;2024-03-08T04:10:04;6.40;99.90
26621;DHT22;14253;44.840;10.444;2024-03-08T04:12:32;6.40;99.90
26621;DHT22;14253;44.840;10.444;2024-03-08T04:14:58;6.40;99.90
26621;DHT22;14253;44.840;10.444;2024-03-08T04:17:24;6.40;99.90
26621;DHT22;14253;44.840;10.444;2024-03-08T04:19:50;6.40;99.90
26621;DHT22;14253;44.840;10.444;2024-03-08T04:22:16;6.50;99.90
26621;DHT22;14253;44.840;10.444;2024-03-08T04:24:44;6.40;99.90
26621;DHT22;14253;44.840;10.444;2024-03-08T04:27:10;6.40;99.90
26621;DHT22;14253;44.840;10.444;2024-03-08T04:29:36;6.40;99.90
26621;DHT22;14253;44.840;10.444;2024-03-08T04:32:05;6.40;99.90
26621;DHT22;14253;44.840;10.444;2024-03-08T04:34:32;6.40;99.90
26621;DHT22;14253;44.840;10.444;2024-03-08T04:37:01;6.40;99.90
26621;DHT22;14253;44.840;10.444;2024-03-08T04:39:27;6.40;99.90
26621;DHT22;14253;44.840;10.444;2024-03-08T04:42:03;6.40;99.90
26621;DHT22;14253;44.840;10.444;2024-03-08T04:44:32;6.40;99.90
26621;DHT22;14253;44.840;10.444;2024-03-08T04:46:59;6.40;99.90
26621;DHT22;14253;44.840;10.444;2024-03-08T04:49:26;6.40;99.90
26621;DHT22;14253;44.840;10.444;2024-03-08T04:51:53;6.40;99.90
26621;DHT22;14253;44.840;10.444;2024-03-08T04:54:19;6.40;99.90
26621;DHT22;14253;44.840;10.444;2024-03-08T04:56:45;6.40;99.90
26621;DHT22;14253;44.840;10.444;2024-03-08T04:59:11;6.40;99.90
26621;DHT22;14253;44.840;10.444;2024-03-08T05:01:37;6.40;99.90
26621;DHT22;14253;44.840;10.444;2024-03-08T05:04:04;6.40;99.90
26621;DHT22;14253;44.840;10.444;2024-03-08T05:06:30;6.40;99.90
26621;DHT22;14253;44.840;10.444;2024-03-08T05:08:56;6.40;99.90
26621;DHT22;14253;44.840;10.444;2024-03-08T05:11:22;6.40;99.90
26621;DHT22;14253;44.840;10.444;2024-03-08T05:13:48;6.30;99.90
26621;DHT22;14253;44.840;10.444;2024-03-08T05:16:14;6.30;99.90
26621;DHT22;14253;44.840;10.444;2024-03-08T05:18:41;6.30;99.90
26621;DHT22;14253;44.840;10.444;2024-03-08T05:21:07;6.30;99.90
26621;DHT22;14253;44.840;10.444;2024-03-08T05:23:35;6.30;99.90
26621;DHT22;14253;44.840;10.444;2024-03-08T05:26:01;6.30;99.90
26621;DHT22;14253;44.840;10.444;2024-03-08T05:28:27;6.30;99.90
26621;DHT22;14253;44.840;10.444;2024-03-08T05:30:52;6.30;99.90
26621;DHT22;14253;44.840;10.444;2024-03-08T05:33:18;6.40;99.90
26621;DHT22;14253;44.840;10.444;2024-03-08T05:35:45;6.50;99.90
26621;DHT22;14253;44.840;10.444;2024-03-08T05:38:11;6.60;99.90
26621;DHT22;14253;44.840;10.444;2024-03-08T05:40:38;6.60;99.90
26621;DHT22;14253;44.840;10.444;2024-03-08T05:43:04;6.70;99.90
26621;DHT22;14253;44.840;10.444;2024-03-08T05:45:31;6.70;99.90
26621;DHT22;14253;44.840;10.444;2024-03-08T05:47:56;6.80;99.90
26621;DHT22;14253;44.840;10.444;2024-03-08T05:50:22;6.90;99.90
26621;DHT22;14253;44.840;10.444;2024-03-08T05:52:48;6.90;99.90
26621;DHT22;14253;44.840;10.444;2024-03-08T05:55:15;7.00;99.90
26621;DHT22;14253;44.840;10.444;2024-03-08T05:57:41;7.00;99.90
26621;DHT22;14253;44.840;10.444;2024-03-08T06:00:08;7.10;99.90
26621;DHT22;14253;44.840;10.444;2024-03-08T06:02:39;7.10;99.90
26621;DHT22;14253;44.840;10.444;2024-03-08T06:05:10;7.20;99.90
26621;DHT22;14253;44.840;10.444;2024-03-08T06:07:37;7.20;99.90
26621;DHT22;14253;44.840;10.444;2024-03-08T06:10:07;7.30;99.90
26621;DHT22;14253;44.840;10.444;2024-03-08T06:12:36;7.30;99.90
26621;DHT22;14253;44.840;10.444;2024-03-08T06:15:09;7.40;99.90
26621;DHT22;14253;44.840;10.444;2024-03-08T06:17:36;7.50;99.90
26621;DHT22;14253;44.840;10.444;2024-03-08T06:20:02;7.50;99.90
26621;DHT22;14253;44.840;10.444;2024-03-08T06:22:29;7.60;99.90
26621;DHT22;14253;44.840;10.444;2024-03-08T06:24:56;7.70;99.90
26621;DHT22;14253;44.840;10.444;2024-03-08T06:27:22;7.70;99.90
26621;DHT22;14253;44.840;10.444;2024-03-08T06:29:48;7.70;99.90
26621;DHT22;14253;44.840;10.444;2024-03-08T06:32:14;7.80;99.90
26621;DHT22;14253;44.840;10.444;2024-03-08T06:34:41;7.90;99.90
26621;DHT22;14253;44.840;10.444;2024-03-08T06:37:07;7.90;99.90
26621;DHT22;14253;44.840;10.444;2024-03-08T06:39:33;7.80;99.90
26621;DHT22;14253;44.840;10.444;2024-03-08T06:42:01;7.80;99.90
26621;DHT22;14253;44.840;10.444;2024-03-08T06:44:27;7.80;99.90
26621;DHT22;14253;44.840;10.444;2024-03-08T06:46:53;7.80;99.90
26621;DHT22;14253;44.840;10.444;2024-03-08T06:49:19;7.80;99.90
26621;DHT22;14253;44.840;10.444;2024-03-08T06:51:45;7.80;99.90
26621;DHT22;14253;44.840;10.444;2024-03-08T06:54:11;7.90;99.90
26621;DHT22;14253;44.840;10.444;2024-03-08T06:56:37;7.90;99.90
26621;DHT22;14253;44.840;10.444;2024-03-08T06:59:03;8.00;99.90
26621;DHT22;14253;44.840;10.444;2024-03-08T07:01:29;8.10;99.90
26621;DHT22;14253;44.840;10.444;2024-03-08T07:04:00;8.20;99.90
26621;DHT22;14253;44.840;10.444;2024-03-08T07:06:31;8.30;99.90
26621;DHT22;14253;44.840;10.444;2024-03-08T07:08:59;8.40;99.90
26621;DHT22;14253;44.840;10.444;2024-03-08T07:11:25;8.40;99.90
26621;DHT22;14253;44.840;10.444;2024-03-08T07:13:51;8.50;99.90
26621;DHT22;14253;44.840;10.444;2024-03-08T07:16:16;8.50;99.90
26621;DHT22;14253;44.840;10.444;2024-03-08T07:18:42;8.60;99.90
26621;DHT22;14253;44.840;10.444;2024-03-08T07:21:09;8.70;99.90
26621;DHT22;14253;44.840;10.444;2024-03-08T07:23:38;8.70;99.90
26621;DHT22;14253;44.840;10.444;2024-03-08T07:26:28;8.70;99.90
26621;DHT22;14253;44.840;10.444;2024-03-08T07:28:56;8.80;99.90
26621;DHT22;14253;44.840;10.444;2024-03-08T07:31:23;8.80;99.90
26621;DHT22;14253;44.840;10.444;2024-03-08T07:33:52;8.80;99.90
26621;DHT22;14253;44.840;10.444;2024-03-08T07:36:19;9.00;99.90
26621;DHT22;14253;44.840;10.444;2024-03-08T07:38:45;9.00;99.90
26621;DHT22;14253;44.840;10.444;2024-03-08T07:41:13;9.00;99.90
26621;DHT22;14253;44.840;10.444;2024-03-08T07:43:38;9.00;99.90
26621;DHT22;14253;44.840;10.444;2024-03-08T07:46:04;8.90;99.90
26621;DHT22;14253;44.840;10.444;2024-03-08T07:48:30;8.90;99.90
26621;DHT22;14253;44.840;10.444;2024-03-08T07:50:56;8.90;99.90
26621;DHT22;14253;44.840;10.444;2024-03-08T07:53:22;8.90;99.90
26621;DHT22;14253;44.840;10.444;2024-03-08T07:55:50;8.90;99.90
26621;DHT22;14253;44.840;10.444;2024-03-08T07:58:16;8.90;99.90
26621;DHT22;14253;44.840;10.444;2024-03-08T08:00:43;8.90;99.90
26621;DHT22;14253;44.840;10.444;2024-03-08T08:03:09;8.90;99.90
26621;DHT22;14253;44.840;10.444;2024-03-08T08:05:35;8.90;99.90
26621;DHT22;14253;44.840;10.444;2024-03-08T08:08:05;8.90;99.90
26621;DHT22;14253;44.840;10.444;2024-03-08T08:10:33;8.90;99.90
26621;DHT22;14253;44.840;10.444;2024-03-08T08:12:59;8.90;99.90
26621;DHT22;14253;44.840;10.444;2024-03-08T08:15:29;8.90;99.90
26621;DHT22;14253;44.840;10.444;2024-03-08T08:18:01;8.90;99.90
26621;DHT22;14253;44.840;10.444;2024-03-08T08:20:28;9.00;99.90
26621;DHT22;14253;44.840;10.444;2024-03-08T08:22:54;9.10;99.90
26621;DHT22;14253;44.840;10.444;2024-03-08T08:25:21;9.10;99.90
26621;DHT22;14253;44.840;10.444;2024-03-08T08:27:50;9.10;99.90
26621;DHT22;14253;44.840;10.444;2024-03-08T08:30:16;9.10;99.90
26621;DHT22;14253;44.840;10.444;2024-03-08T08:32:41;9.10;99.90
26621;DHT22;14253;44.840;10.444;2024-03-08T08:35:08;9.10;99.90
26621;DHT22;14253;44.840;10.444;2024-03-08T08:37:35;9.10;99.90
26621;DHT22;14253;44.840;10.444;2024-03-08T08:40:04;9.10;99.90
26621;DHT22;14253;44.840;10.444;2024-03-08T08:42:38;9.10;99.90
26621;DHT22;14253;44.840;10.444;2024-03-08T08:45:05;9.10;99.90
26621;DHT22;14253;44.840;10.444;2024-03-08T08:47:38;9.20;99.90
26621;DHT22;14253;44.840;10.444;2024-03-08T08:50:04;9.20;99.90
26621;DHT22;14253;44.840;10.444;2024-03-08T08:52:31;9.20;99.90
26621;DHT22;14253;44.840;10.444;2024-03-08T08:54:58;9.30;99.90
26621;DHT22;14253;44.840;10.444;2024-03-08T08:57:24;9.40;99.90
26621;DHT22;14253;44.840;10.444;2024-03-08T08:59:50;9.40;99.90
26621;DHT22;14253;44.840;10.444;2024-03-08T09:02:16;9.40;99.90
26621;DHT22;14253;44.840;10.444;2024-03-08T09:04:43;9.50;99.90
26621;DHT22;14253;44.840;10.444;2024-03-08T09:07:09;9.60;99.90
26621;DHT22;14253;44.840;10.444;2024-03-08T09:09:35;9.60;99.90
26621;DHT22;14253;44.840;10.444;2024-03-08T09:12:01;9.70;99.90
26621;DHT22;14253;44.840;10.444;2024-03-08T09:14:27;9.80;99.90
26621;DHT22;14253;44.840;10.444;2024-03-08T09:16:53;9.80;99.90
26621;DHT22;14253;44.840;10.444;2024-03-08T09:19:19;9.90;99.90
26621;DHT22;14253;44.840;10.444;2024-03-08T09:21:45;9.90;99.90
26621;DHT22;14253;44.840;10.444;2024-03-08T09:24:11;9.80;99.90
26621;DHT22;14253;44.840;10.444;2024-03-08T09:26:38;9.90;99.90
26621;DHT22;14253;44.840;10.444;2024-03-08T09:29:06;9.90;99.90
26621;DHT22;14253;44.840;10.444;2024-03-08T09:31:32;10.00;99.90
26621;DHT22;14253;44.840;10.444;2024-03-08T09:33:59;10.10;99.90
26621;DHT22;14253;44.840;10.444;2024-03-08T09:36:24;10.10;99.90
26621;DHT22;14253;44.840;10.444;2024-03-08T09:38:51;10.20;99.90
26621;DHT22;14253;44.840;10.444;2024-03-08T09:41:16;10.10;99.90
26621;DHT22;14253;44.840;10.444;2024-03-08T09:43:43;10.10;99.90
26621;DHT22;14253;44.840;10.444;2024-03-08T09:46:10;10.20;99.90
26621;DHT22;14253;44.840;10.444;2024-03-08T09:48:37;10.20;99.90
26621;DHT22;14253;44.840;10.444;2024-03-08T09:51:04;10.20;99.90
26621;DHT22;14253;44.840;10.444;2024-03-08T09:53:30;10.20;99.90
26621;DHT22;14253;44.840;10.444;2024-03-08T09:55:56;10.10;99.90
26621;DHT22;14253;44.840;10.444;2024-03-08T09:58:22;10.10;99.90
26621;DHT22;14253;44.840;10.444;2024-03-08T10:01:00;10.00;99.90
26621;DHT22;14253;44.840;10.444;2024-03-08T10:03:28;10.00;99.90
26621;DHT22;14253;44.840;10.444;2024-03-08T10:05:56;10.00;99.90
26621;DHT22;14253;44.840;10.444;2024-03-08T10:08:27;10.00;99.90
26621;DHT22;14253;44.840;10.444;2024-03-08T10:10:55;10.20;99.90
26621;DHT22;14253;44.840;10.444;2024-03-08T10:13:25;10.30;99.90
26621;DHT22;14253;44.840;10.444;2024-03-08T10:15:53;10.40;99.90
26621;DHT22;14253;44.840;10.444;2024-03-08T10:18:19;10.40;99.90
26621;DHT22;14253;44.840;10.444;2024-03-08T10:20:44;10.50;99.90
26621;DHT22;14253;44.840;10.444;2024-03-08T10:23:11;10.70;99.90
26621;DHT22;14253;44.840;10.444;2024-03-08T10:25:37;10.70;99.90
26621;DHT22;14253;44.840;10.444;2024-03-08T10:28:04;10.80;99.90
26621;DHT22;14253;44.840;10.444;2024-03-08T10:30:30;10.70;99.90
26621;DHT22;14253;44.840;10.444;2024-03-08T10:32:56;10.80;99.90
26621;DHT22;14253;44.840;10.444;2024-03-08T10:35:22;10.80;99.90
26621;DHT22;14253;44.840;10.444;2024-03-08T10:37:51;10.90;99.90
26621;DHT22;14253;44.840;10.444;2024-03-08T10:40:26;10.80;99.90
26621;DHT22;14253;44.840;10.444;2024-03-08T10:42:56;10.80;99.90
26621;DHT22;14253;44.840;10.444;2024-03-08T10:45:36;10.80;99.90
26621;DHT22;14253;44.840;10.444;2024-03-08T10:48:31;10.80;99.90
26621;DHT22;14253;44.840;10.444;2024-03-08T10:50:58;10.90;99.90
26621;DHT22;14253;44.840;10.444;2024-03-08T10:53:27;11.00;99.90
26621;DHT22;14253;44.840;10.444;2024-03-08T10:55:53;11.00;99.90
26621;DHT22;14253;44.840;10.444;2024-03-08T10:58:25;11.00;99.90
26621;DHT22;14253;44.840;10.444;2024-03-08T11:00:54;11.10;99.90
26621;DHT22;14253;44.840;10.444;2024-03-08T11:06:46;11.00;99.90
26621;DHT22;14253;44.840;10.444;2024-03-08T11:09:32;10.90;99.90
26621;DHT22;14253;44.840;10.444;2024-03-08T11:12:20;10.90;99.90
26621;DHT22;14253;44.840;10.444;2024-03-08T11:14:48;10.90;99.90
26621;DHT22;14253;44.840;10.444;2024-03-08T11:17:25;10.80;99.90
26621;DHT22;14253;44.840;10.444;2024-03-08T11:19:55;10.80;99.90
26621;DHT22;14253;44.840;10.444;2024-03-08T11:22:26;10.90;99.90
26621;DHT22;14253;44.840;10.444;2024-03-08T11:24:53;11.10;99.90
26621;DHT22;14253;44.840;10.444;2024-03-08T11:27:19;11.20;99.90
26621;DHT22;14253;44.840;10.444;2024-03-08T11:30:02;11.30;99.90
26621;DHT22;14253;44.840;10.444;2024-03-08T11:32:38;11.40;99.90
26621;DHT22;14253;44.840;10.444;2024-03-08T11:35:19;11.40;99.90
26621;DHT22;14253;44.840;10.444;2024-03-08T11:37:45;11.40;99.90
26621;DHT22;14253;44.840;10.444;2024-03-08T11:40:13;11.30;99.90
26621;DHT22;14253;44.840;10.444;2024-03-08T11:42:47;11.20;99.90
26621;DHT22;14253;44.840;10.444;2024-03-08T11:45:14;11.20;99.90
26621;DHT22;14253;44.840;10.444;2024-03-08T11:47:44;11.20;99.90
26621;DHT22;14253;44.840;10.444;2024-03-08T11:50:15;11.20;99.90
26621;DHT22;14253;44.840;10.444;2024-03-08T11:52:42;11.20;99.90
26621;DHT22;14253;44.840;10.444;2024-03-08T11:55:09;11.30;99.90
26621;DHT22;14253;44.840;10.444;2024-03-08T11:57:36;11.30;99.90
26621;DHT22;14253;44.840;10.444;2024-03-08T12:00:02;11.40;99.90
26621;DHT22;14253;44.840;10.444;2024-03-08T12:02:34;11.50;99.90
26621;DHT22;14253;44.840;10.444;2024-03-08T12:05:04;11.50;99.90
26621;DHT22;14253;44.840;10.444;2024-03-08T12:07:31;11.40;99.90
26621;DHT22;14253;44.840;10.444;2024-03-08T12:10:18;11.40;99.90
26621;DHT22;14253;44.840;10.444;2024-03-08T12:12:52;11.50;99.90
26621;DHT22;14253;44.840;10.444;2024-03-08T12:15:20;11.50;99.90
26621;DHT22;14253;44.840;10.444;2024-03-08T12:17:49;11.50;99.90
26621;DHT22;14253;44.840;10.444;2024-03-08T12:20:23;11.40;99.90
26621;DHT22;14253;44.840;10.444;2024-03-08T12:22:50;11.20;99.90
26621;DHT22;14253;44.840;10.444;2024-03-08T12:25:18;11.20;99.90
26621;DHT22;14253;44.840;10.444;2024-03-08T12:27:44;11.20;99.90
26621;DHT22;14253;44.840;10.444;2024-03-08T12:30:18;11.20;99.90
26621;DHT22;14253;44.840;10.444;2024-03-08T12:32:58;11.20;99.90
26621;DHT22;14253;44.840;10.444;2024-03-08T12:35:26;11.20;99.90
26621;DHT22;14253;44.840;10.444;2024-03-08T12:37:53;11.20;99.90
26621;DHT22;14253;44.840;10.444;2024-03-08T12:40:29;11.10;99.90
26621;DHT22;14253;44.840;10.444;2024-03-08T12:42:56;11.10;99.90
26621;DHT22;14253;44.840;10.444;2024-03-08T12:45:25;11.10;99.90
26621;DHT22;14253;44.840;10.444;2024-03-08T12:47:51;11.10;99.90
26621;DHT22;14253;44.840;10.444;2024-03-08T12:50:19;11.20;99.90
26621;DHT22;14253;44.840;10.444;2024-03-08T12:52:45;11.40;99.90
26621;DHT22;14253;44.840;10.444;2024-03-08T12:55:11;11.30;99.90
26621;DHT22;14253;44.840;10.444;2024-03-08T12:57:38;11.40;99.90
26621;DHT22;14253;44.840;10.444;2024-03-08T13:00:05;11.40;99.90
26621;DHT22;14253;44.840;10.444;2024-03-08T13:02:31;11.30;99.90
26621;DHT22;14253;44.840;10.444;2024-03-08T13:04:58;11.40;99.90
26621;DHT22;14253;44.840;10.444;2024-03-08T13:07:25;11.30;99.90
26621;DHT22;14253;44.840;10.444;2024-03-08T13:09:54;11.40;99.90
26621;DHT22;14253;44.840;10.444;2024-03-08T13:12:21;11.40;99.90
26621;DHT22;14253;44.840;10.444;2024-03-08T13:14:48;11.40;99.90
26621;DHT22;14253;44.840;10.444;2024-03-08T13:17:14;11.30;99.90
26621;DHT22;14253;44.840;10.444;2024-03-08T13:19:41;11.20;99.90
26621;DHT22;14253;44.840;10.444;2024-03-08T13:22:08;11.10;99.90
26621;DHT22;14253;44.840;10.444;2024-03-08T13:24:42;11.00;99.90
26621;DHT22;14253;44.840;10.444;2024-03-08T13:27:11;11.10;99.90
26621;DHT22;14253;44.840;10.444;2024-03-08T13:29:50;11.10;99.90
26621;DHT22;14253;44.840;10.444;2024-03-08T13:32:16;11.10;99.90
26621;DHT22;14253;44.840;10.444;2024-03-08T13:34:43;11.10;99.90
26621;DHT22;14253;44.840;10.444;2024-03-08T13:37:27;11.10;99.90
26621;DHT22;14253;44.840;10.444;2024-03-08T13:39:53;11.30;99.90
26621;DHT22;14253;44.840;10.444;2024-03-08T13:42:19;11.30;99.90
26621;DHT22;14253;44.840;10.444;2024-03-08T13:44:46;11.30;99.90
26621;DHT22;14253;44.840;10.444;2024-03-08T13:47:16;11.10;99.90
26621;DHT22;14253;44.840;10.444;2024-03-08T13:49:43;11.10;99.90
26621;DHT22;14253;44.840;10.444;2024-03-08T13:52:10;11.10;99.90
26621;DHT22;14253;44.840;10.444;2024-03-08T13:54:38;11.20;99.90
26621;DHT22;14253;44.840;10.444;2024-03-08T13:57:04;11.30;99.90
26621;DHT22;14253;44.840;10.444;2024-03-08T13:59:34;11.40;99.90
26621;DHT22;14253;44.840;10.444;2024-03-08T14:02:04;11.50;99.90
26621;DHT22;14253;44.840;10.444;2024-03-08T14:04:31;11.50;99.90
26621;DHT22;14253;44.840;10.444;2024-03-08T14:06:57;11.60;99.90
26621;DHT22;14253;44.840;10.444;2024-03-08T14:09:29;11.70;99.90
26621;DHT22;14253;44.840;10.444;2024-03-08T14:11:56;11.70;99.90
26621;DHT22;14253;44.840;10.444;2024-03-08T14:14:22;11.60;99.90
26621;DHT22;14253;44.840;10.444;2024-03-08T14:16:49;11.50;99.90
26621;DHT22;14253;44.840;10.444;2024-03-08T14:19:19;11.30;99.90
26621;DHT22;14253;44.840;10.444;2024-03-08T14:21:45;11.20;99.90
26621;DHT22;14253;44.840;10.444;2024-03-08T14:24:17;11.20;99.90
26621;DHT22;14253;44.840;10.444;2024-03-08T14:26:44;11.20;99.90
26621;DHT22;14253;44.840;10.444;2024-03-08T14:29:10;11.00;99.90
26621;DHT22;14253;44.840;10.444;2024-03-08T14:31:37;10.90;99.90
26621;DHT22;14253;44.840;10.444;2024-03-08T14:34:03;10.80;99.90
26621;DHT22;14253;44.840;10.444;2024-03-08T14:36:30;10.80;99.90
26621;DHT22;14253;44.840;10.444;2024-03-08T14:38:56;10.90;99.90
26621;DHT22;14253;44.840;10.444;2024-03-08T14:41:22;10.80;99.90
26621;DHT22;14253;44.840;10.444;2024-03-08T14:43:48;10.80;99.90
26621;DHT22;14253;44.840;10.444;2024-03-08T14:46:15;10.70;99.90
26621;DHT22;14253;44.840;10.444;2024-03-08T14:48:49;10.80;99.90
26621;DHT22;14253;44.840;10.444;2024-03-08T14:51:19;10.70;99.90
26621;DHT22;14253;44.840;10.444;2024-03-08T14:53:54;10.70;99.90
26621;DHT22;14253;44.840;10.444;2024-03-08T14:56:21;10.70;99.90
26621;DHT22;14253;44.840;10.444;2024-03-08T14:58:48;10.70;99.90
26621;DHT22;14253;44.840;10.444;2024-03-08T15:01:18;10.70;99.90
26621;DHT22;14253;44.840;10.444;2024-03-08T15:03:52;10.70;99.90
26621;DHT22;14253;44.840;10.444;2024-03-08T15:06:18;10.70;99.90
26621;DHT22;14253;44.840;10.444;2024-03-08T15:08:48;10.70;99.90
26621;DHT22;14253;44.840;10.444;2024-03-08T15:11:14;10.70;99.90
26621;DHT22;14253;44.840;10.444;2024-03-08T15:13:49;10.60;99.90
26621;DHT22;14253;44.840;10.444;2024-03-08T15:16:19;10.60;99.90
26621;DHT22;14253;44.840;10.444;2024-03-08T15:18:46;10.60;99.90
26621;DHT22;14253;44.840;10.444;2024-03-08T15:21:14;10.70;99.90
26621;DHT22;14253;44.840;10.444;2024-03-08T15:23:46;10.60;99.90
26621;DHT22;14253;44.840;10.444;2024-03-08T15:26:18;10.60;99.90
26621;DHT22;14253;44.840;10.444;2024-03-08T15:28:45;10.50;99.90
26621;DHT22;14253;44.840;10.444;2024-03-08T15:31:13;10.50;99.90
26621;DHT22;14253;44.840;10.444;2024-03-08T15:33:40;10.50;99.90